createdAt,value
2018-11-14T00:00:08.909Z,3.10
2018-11-14T00:02:37.355Z,3.00
2018-11-14T00:05:06.773Z,3.10
2018-11-14T00:07:35.317Z,3.00
2018-11-14T00:10:04.277Z,3.00
2018-11-14T00:12:32.717Z,3.30
2018-11-14T00:15:01.167Z,3.50
2018-11-14T00:17:29.625Z,2.90
2018-11-14T00:19:58.085Z,3.67
2018-11-14T00:22:26.513Z,3.53
2018-11-14T00:24:55.081Z,3.27
2018-11-14T00:27:23.475Z,3.67
2018-11-14T00:29:51.937Z,3.10
2018-11-14T00:32:20.389Z,3.60
2018-11-14T00:34:48.921Z,2.83
2018-11-14T00:37:17.383Z,3.13
2018-11-14T00:39:45.850Z,3.23
2018-11-14T00:42:14.353Z,2.70
2018-11-14T00:44:42.837Z,2.87
2018-11-14T00:47:11.293Z,3.60
2018-11-14T00:49:39.962Z,3.40
2018-11-14T00:52:08.431Z,3.23
2018-11-14T00:54:36.905Z,2.87
2018-11-14T00:57:06.150Z,3.73
2018-11-14T00:59:34.635Z,3.17
2018-11-14T01:02:03.380Z,2.93
2018-11-14T01:04:31.596Z,3.40
2018-11-14T01:07:00.095Z,3.80
2018-11-14T01:09:28.644Z,2.87
2018-11-14T01:11:57.057Z,2.90
2018-11-14T01:14:25.533Z,2.67
2018-11-14T01:16:54.029Z,3.33
2018-11-14T01:19:22.474Z,3.03
2018-11-14T01:21:50.914Z,2.83
2018-11-14T01:24:19.426Z,3.17
2018-11-14T01:26:47.921Z,3.10
2018-11-14T01:29:16.350Z,2.93
2018-11-14T01:31:44.818Z,3.43
2018-11-14T01:34:13.347Z,3.23
2018-11-14T01:36:41.827Z,3.47
2018-11-14T01:39:11.245Z,3.00
2018-11-14T01:41:40.744Z,3.37
2018-11-14T01:44:09.338Z,3.63
2018-11-14T01:46:38.543Z,3.03
2018-11-14T01:49:07.929Z,3.60
2018-11-14T01:51:36.372Z,2.80
2018-11-14T01:54:04.991Z,3.90
2018-11-14T01:56:33.482Z,3.43
2018-11-14T01:59:01.954Z,3.17
2018-11-14T02:01:30.419Z,2.97
2018-11-14T02:03:58.850Z,3.20
2018-11-14T02:06:27.312Z,3.07
2018-11-14T02:08:55.806Z,3.13
2018-11-14T02:11:24.254Z,3.07
2018-11-14T02:13:52.744Z,3.30
2018-11-14T02:16:21.243Z,3.10
2018-11-14T02:18:49.710Z,3.30
2018-11-14T02:21:18.249Z,3.23
2018-11-14T02:23:46.829Z,3.10
2018-11-14T02:26:15.355Z,3.45
2018-11-14T02:28:43.982Z,2.90
2018-11-14T02:31:12.495Z,3.93
2018-11-14T02:33:41.033Z,3.23
2018-11-14T02:36:09.567Z,3.47
2018-11-14T02:38:38.067Z,3.17
2018-11-14T02:41:06.647Z,3.20
2018-11-14T02:43:35.139Z,3.20
2018-11-14T02:46:03.641Z,4.17
2018-11-14T02:48:32.195Z,3.10
2018-11-14T02:51:11.863Z,3.87
2018-11-14T02:53:40.407Z,3.17
2018-11-14T02:56:10.803Z,2.60
2018-11-14T02:58:39.619Z,3.47
2018-11-14T03:01:08.385Z,2.73
2018-11-14T03:03:36.872Z,3.67
2018-11-14T03:06:05.708Z,2.80
2018-11-14T03:08:34.200Z,3.67
2018-11-14T03:11:02.716Z,3.30
2018-11-14T03:13:31.228Z,3.10
2018-11-14T03:15:59.711Z,3.40
2018-11-14T03:18:28.211Z,3.20
2018-11-14T03:20:56.764Z,3.53
2018-11-14T03:23:25.259Z,3.57
2018-11-14T03:25:53.782Z,3.03
2018-11-14T03:28:22.284Z,3.90
2018-11-14T03:30:50.775Z,3.23
2018-11-14T03:33:19.299Z,3.30
2018-11-14T03:35:53.685Z,4.40
2018-11-14T03:38:22.192Z,4.00
2018-11-14T03:40:50.696Z,4.07
2018-11-14T03:43:19.197Z,3.20
2018-11-14T03:45:47.711Z,3.10
2018-11-14T03:48:16.235Z,3.50
2018-11-14T03:50:44.737Z,3.60
2018-11-14T03:53:13.233Z,3.40
2018-11-14T03:55:41.709Z,3.80
2018-11-14T03:58:10.296Z,4.07
2018-11-14T04:00:38.788Z,4.80
2018-11-14T04:03:07.342Z,3.97
2018-11-14T04:05:35.960Z,4.67
2018-11-14T04:08:04.436Z,3.77
2018-11-14T04:10:32.922Z,3.90
2018-11-14T04:13:01.436Z,4.80
2018-11-14T04:15:30.032Z,3.80
2018-11-14T04:17:58.569Z,4.10
2018-11-14T04:20:27.075Z,4.50
2018-11-14T04:22:55.571Z,4.17
2018-11-14T04:25:24.091Z,4.00
2018-11-14T04:27:52.597Z,3.83
2018-11-14T04:30:23.008Z,4.40
2018-11-14T04:32:51.591Z,4.13
2018-11-14T04:35:20.812Z,3.80
2018-11-14T04:37:49.486Z,5.30
2018-11-14T04:40:20.726Z,4.10
2018-11-14T04:42:49.337Z,4.00
2018-11-14T04:45:20.283Z,3.93
2018-11-14T04:47:48.868Z,4.07
2018-11-14T04:50:19.156Z,4.53
2018-11-14T04:52:48.498Z,3.50
2018-11-14T04:55:18.056Z,4.17
2018-11-14T04:57:46.744Z,4.13
2018-11-14T05:00:16.174Z,4.13
2018-11-14T05:02:45.462Z,4.70
2018-11-14T05:05:15.506Z,4.83
2018-11-14T05:07:43.999Z,4.40
2018-11-14T05:10:15.735Z,4.87
2018-11-14T05:12:44.387Z,4.97
2018-11-14T05:15:14.548Z,6.07
2018-11-14T05:17:43.516Z,4.07
2018-11-14T05:20:13.323Z,4.87
2018-11-14T05:22:42.323Z,4.50
2018-11-14T05:25:10.848Z,4.83
2018-11-14T05:27:39.464Z,4.53
2018-11-14T05:30:10.120Z,4.83
2018-11-14T05:32:38.778Z,4.43
2018-11-14T05:35:08.574Z,4.83
2018-11-14T05:37:37.710Z,5.30
2018-11-14T05:40:07.854Z,5.03
2018-11-14T05:42:36.635Z,5.17
2018-11-14T05:45:07.298Z,5.00
2018-11-14T05:47:36.029Z,5.30
2018-11-14T05:50:05.609Z,4.40
2018-11-14T05:52:34.084Z,4.33
2018-11-14T05:55:02.577Z,4.60
2018-11-14T05:57:31.048Z,4.40
2018-11-14T05:59:59.535Z,4.73
2018-11-14T06:02:28.047Z,5.00
2018-11-14T06:04:56.552Z,4.77
2018-11-14T06:07:25.172Z,5.30
2018-11-14T06:09:53.601Z,4.50
2018-11-14T06:12:22.115Z,5.20
2018-11-14T06:14:50.615Z,5.00
2018-11-14T06:17:19.135Z,4.97
2018-11-14T06:19:47.666Z,5.30
2018-11-14T06:22:16.149Z,4.43
2018-11-14T06:24:44.655Z,5.60
2018-11-14T06:27:13.186Z,5.53
2018-11-14T06:29:41.751Z,5.47
2018-11-14T06:32:10.231Z,5.80
2018-11-14T06:34:38.751Z,5.67
2018-11-14T06:37:07.294Z,5.27
2018-11-14T06:39:35.798Z,5.40
2018-11-14T06:42:04.720Z,4.93
2018-11-14T06:44:33.233Z,5.60
2018-11-14T06:47:01.801Z,5.67
2018-11-14T06:49:30.290Z,6.33
2018-11-14T06:51:58.805Z,6.20
2018-11-14T06:54:27.312Z,5.67
2018-11-14T06:56:55.798Z,6.10
2018-11-14T06:59:24.328Z,6.10
2018-11-14T07:01:52.847Z,4.87
2018-11-14T07:04:21.362Z,6.00
2018-11-14T07:06:49.872Z,5.20
2018-11-14T07:09:18.391Z,5.60
2018-11-14T07:11:46.884Z,4.67
2018-11-14T07:14:15.382Z,5.30
2018-11-14T07:16:43.911Z,5.77
2018-11-14T07:19:12.501Z,6.13
2018-11-14T07:21:41.005Z,5.20
2018-11-14T07:24:09.512Z,5.57
2018-11-14T07:26:38.031Z,5.80
2018-11-14T07:29:06.557Z,5.90
2018-11-14T07:31:35.076Z,5.83
2018-11-14T07:34:03.612Z,6.07
2018-11-14T07:36:32.104Z,5.30
2018-11-14T07:39:02.079Z,6.40
2018-11-14T07:41:33.064Z,5.37
2018-11-14T07:44:01.795Z,6.53
2018-11-14T07:46:31.369Z,6.77
2018-11-14T07:49:00.147Z,6.10
2018-11-14T07:51:28.699Z,5.63
2018-11-14T07:53:57.465Z,5.80
2018-11-14T07:56:26.139Z,6.77
2018-11-14T07:58:54.655Z,6.60
2018-11-14T08:01:23.438Z,6.43
2018-11-14T08:03:52.059Z,6.43
2018-11-14T08:06:20.591Z,6.13
2018-11-14T08:08:49.119Z,6.70
2018-11-14T08:11:17.676Z,6.50
2018-11-14T08:13:47.421Z,6.30
2018-11-14T08:16:15.998Z,6.20
2018-11-14T08:18:44.518Z,6.70
2018-11-14T08:21:13.100Z,5.60
2018-11-14T08:23:41.615Z,6.17
2018-11-14T08:26:10.155Z,6.40
2018-11-14T08:28:38.675Z,6.80
2018-11-14T08:31:07.249Z,5.67
2018-11-14T08:33:35.721Z,5.50
2018-11-14T08:36:04.270Z,6.40
2018-11-14T08:38:32.791Z,6.90
2018-11-14T08:41:01.295Z,6.20
2018-11-14T08:43:29.812Z,5.00
2018-11-14T08:45:58.323Z,5.90
2018-11-14T08:48:26.824Z,5.30
2018-11-14T08:50:55.344Z,5.13
2018-11-14T08:53:23.882Z,5.90
2018-11-14T08:55:52.386Z,5.60
2018-11-14T08:58:20.904Z,5.40
2018-11-14T09:00:49.419Z,5.17
2018-11-14T09:03:17.901Z,5.27
2018-11-14T09:05:46.423Z,5.33
2018-11-14T09:08:14.946Z,5.63
2018-11-14T09:10:43.460Z,5.43
2018-11-14T09:13:12.385Z,5.13
2018-11-14T09:15:40.935Z,4.67
2018-11-14T09:18:09.466Z,5.60
2018-11-14T09:20:37.987Z,5.33
2018-11-14T09:23:07.036Z,5.97
2018-11-14T09:25:36.480Z,5.73
2018-11-14T09:28:05.243Z,5.07
2018-11-14T09:30:33.755Z,5.00
2018-11-14T09:33:02.333Z,5.33
2018-11-14T09:35:30.820Z,5.90
2018-11-14T09:38:00.516Z,4.43
2018-11-14T09:40:29.665Z,5.30
2018-11-14T09:42:58.203Z,4.70
2018-11-14T09:45:27.881Z,4.47
2018-11-14T09:47:56.356Z,4.87
2018-11-14T09:50:27.008Z,4.27
2018-11-14T09:52:57.745Z,4.40
2018-11-14T09:55:26.252Z,5.50
2018-11-14T09:57:54.773Z,5.40
2018-11-14T10:00:25.527Z,5.23
2018-11-14T10:03:27.058Z,5.67
2018-11-14T10:05:56.215Z,5.57
2018-11-14T10:08:24.704Z,4.70
2018-11-14T10:10:53.265Z,4.67
2018-11-14T10:13:21.769Z,4.63
2018-11-14T10:15:50.293Z,6.77
2018-11-14T10:18:18.833Z,5.20
2018-11-14T10:20:47.336Z,11.90
2018-11-14T10:23:15.856Z,12.93
2018-11-14T10:25:44.415Z,10.17
2018-11-14T10:28:13.051Z,9.33
2018-11-14T10:30:41.528Z,27.23
2018-11-14T10:33:10.028Z,32.30
2018-11-14T10:35:38.571Z,14.53
2018-11-14T10:38:07.096Z,31.87
2018-11-14T10:40:35.612Z,6.20
2018-11-14T10:43:04.246Z,13.73
2018-11-14T10:45:32.709Z,6.63
2018-11-14T10:48:01.212Z,10.80
2018-11-14T10:50:29.727Z,9.63
2018-11-14T10:52:58.244Z,5.50
2018-11-14T10:55:26.754Z,17.30
2018-11-14T10:57:55.331Z,23.03
2018-11-14T11:00:30.025Z,5.53
2018-11-14T11:03:05.087Z,37.93
2018-11-14T11:05:38.965Z,24.53
2018-11-14T11:08:12.849Z,6.07
2018-11-14T11:10:46.776Z,14.37
2018-11-14T11:13:20.755Z,29.07
2018-11-14T11:15:54.717Z,10.80
2018-11-14T11:18:27.747Z,6.10
2018-11-14T11:20:56.283Z,5.00
2018-11-14T11:23:24.851Z,12.10
2018-11-14T11:25:53.340Z,8.70
2018-11-14T11:28:22.007Z,6.53
2018-11-14T11:30:50.640Z,5.13
2018-11-14T11:33:19.144Z,6.37
2018-11-14T11:35:47.657Z,8.30
2018-11-14T11:38:16.278Z,4.93
2018-11-14T11:40:44.774Z,4.83
2018-11-14T11:43:13.253Z,4.23
2018-11-14T11:45:41.772Z,4.40
2018-11-14T11:48:10.305Z,13.67
2018-11-14T11:50:38.806Z,5.10
2018-11-14T11:53:07.323Z,9.50
2018-11-14T11:55:35.833Z,6.00
2018-11-14T11:58:04.355Z,13.20
2018-11-14T12:00:33.000Z,6.40
2018-11-14T12:03:01.377Z,7.27
2018-11-14T12:05:29.891Z,28.97
2018-11-14T12:07:58.385Z,4.73
2018-11-14T12:10:26.868Z,3.90
2018-11-14T12:12:55.445Z,4.43
2018-11-14T12:15:23.924Z,6.00
2018-11-14T12:17:52.503Z,4.00
2018-11-14T12:20:20.959Z,4.47
2018-11-14T12:22:49.495Z,4.67
2018-11-14T12:25:18.097Z,3.80
2018-11-14T12:27:46.583Z,4.00
2018-11-14T12:30:16.767Z,3.33
2018-11-14T12:32:45.247Z,3.23
2018-11-14T12:35:15.091Z,2.80
2018-11-14T12:37:43.666Z,3.17
2018-11-14T12:40:13.303Z,5.73
2018-11-14T12:42:42.112Z,6.23
2018-11-14T12:45:12.482Z,4.07
2018-11-14T12:47:41.144Z,3.40
2018-11-14T12:50:10.731Z,3.53
2018-11-14T12:52:39.531Z,3.87
2018-11-14T12:55:10.156Z,3.33
2018-11-14T12:57:38.776Z,13.33
2018-11-14T13:00:09.117Z,9.00
2018-11-14T13:02:37.675Z,8.63
2018-11-14T13:05:07.259Z,6.57
2018-11-14T13:07:35.774Z,7.40
2018-11-14T13:10:04.563Z,3.40
2018-11-14T13:12:33.068Z,3.03
2018-11-14T13:15:01.570Z,3.80
2018-11-14T13:17:30.237Z,3.10
2018-11-14T13:19:58.794Z,3.53
2018-11-14T13:22:27.312Z,2.97
2018-11-14T13:24:55.824Z,2.73
2018-11-14T13:27:24.328Z,2.93
2018-11-14T13:29:52.811Z,3.17
2018-11-14T13:32:21.339Z,3.00
2018-11-14T13:34:49.813Z,3.80
2018-11-14T13:37:18.325Z,3.00
2018-11-14T13:39:46.835Z,3.17
2018-11-14T13:42:15.327Z,2.40
2018-11-14T13:44:43.848Z,2.63
2018-11-14T13:47:12.433Z,2.80
2018-11-14T13:49:41.031Z,2.47
2018-11-14T13:52:09.515Z,2.10
2018-11-14T13:54:37.996Z,3.10
2018-11-14T13:57:06.520Z,2.57
2018-11-14T13:59:35.005Z,2.70
2018-11-14T14:02:03.536Z,3.47
2018-11-14T14:04:32.040Z,2.57
2018-11-14T14:07:00.536Z,2.53
2018-11-14T14:09:29.227Z,2.57
2018-11-14T14:11:57.636Z,2.93
2018-11-14T14:14:26.121Z,2.70
2018-11-14T14:16:54.620Z,3.30
2018-11-14T14:19:23.321Z,2.33
2018-11-14T14:21:51.816Z,2.50
2018-11-14T14:24:20.301Z,2.23
2018-11-14T14:26:48.818Z,2.43
2018-11-14T14:29:17.328Z,1.90
2018-11-14T14:31:45.849Z,2.00
2018-11-14T14:34:14.438Z,2.17
2018-11-14T14:36:42.964Z,2.60
2018-11-14T14:39:12.588Z,2.33
2018-11-14T14:41:41.228Z,2.30
2018-11-14T14:44:09.753Z,2.10
2018-11-14T14:46:38.303Z,2.33
2018-11-14T14:49:06.815Z,2.40
2018-11-14T14:51:35.297Z,2.33
2018-11-14T14:54:03.821Z,1.40
2018-11-14T14:56:32.495Z,1.80
2018-11-14T14:59:00.829Z,2.07
2018-11-14T15:01:29.336Z,2.27
2018-11-14T15:03:57.849Z,3.53
2018-11-14T15:06:26.418Z,2.40
2018-11-14T15:08:54.991Z,2.33
2018-11-14T15:11:23.576Z,2.13
2018-11-14T15:13:52.159Z,2.25
2018-11-14T15:16:20.664Z,2.00
2018-11-14T15:18:49.152Z,2.30
2018-11-14T15:21:17.655Z,2.57
2018-11-14T15:23:46.200Z,2.43
2018-11-14T15:26:14.731Z,2.30
2018-11-14T15:28:43.291Z,1.73
2018-11-14T15:31:11.740Z,2.27
2018-11-14T15:33:40.240Z,2.40
2018-11-14T15:36:09.687Z,3.03
2018-11-14T15:38:38.206Z,2.60
2018-11-14T15:41:07.030Z,3.03
2018-11-14T15:43:35.553Z,2.20
2018-11-14T15:46:04.090Z,2.30
2018-11-14T15:48:32.611Z,2.67
2018-11-14T15:51:01.120Z,2.37
2018-11-14T15:53:29.659Z,3.20
2018-11-14T15:55:58.143Z,2.67
2018-11-14T15:58:26.649Z,2.67
2018-11-14T16:00:55.196Z,3.27
2018-11-14T16:03:23.682Z,2.70
2018-11-14T16:05:52.199Z,2.50
2018-11-14T16:08:20.773Z,2.53
2018-11-14T16:10:49.286Z,2.60
2018-11-14T16:13:17.773Z,2.27
2018-11-14T16:15:46.228Z,2.53
2018-11-14T16:18:14.800Z,2.10
2018-11-14T16:20:43.275Z,2.40
2018-11-14T16:23:11.768Z,3.27
2018-11-14T16:25:40.293Z,3.80
2018-11-14T16:28:08.776Z,4.03
2018-11-14T16:30:38.188Z,3.37
2018-11-14T16:33:07.975Z,3.73
2018-11-14T16:35:36.467Z,3.43
2018-11-14T16:38:05.133Z,3.50
2018-11-14T16:40:34.500Z,2.97
2018-11-14T16:43:04.684Z,3.73
2018-11-14T16:45:33.197Z,3.80
2018-11-14T16:48:01.737Z,3.83
2018-11-14T16:50:30.251Z,3.70
2018-11-14T16:52:58.758Z,3.47
2018-11-14T16:55:27.313Z,4.30
2018-11-14T16:57:56.602Z,4.00
2018-11-14T17:00:27.212Z,3.70
2018-11-14T17:02:55.775Z,3.53
2018-11-14T17:05:25.336Z,4.20
2018-11-14T17:07:54.040Z,5.00
2018-11-14T17:10:23.196Z,5.50
2018-11-14T17:12:53.375Z,4.20
2018-11-14T17:15:23.159Z,4.47
2018-11-14T17:17:51.935Z,7.80
2018-11-14T17:20:21.353Z,17.50
2018-11-14T17:22:50.753Z,8.70
2018-11-14T17:25:19.532Z,13.07
2018-11-14T17:27:48.339Z,14.58
2018-11-14T17:30:20.296Z,13.23
2018-11-14T17:32:48.903Z,12.47
2018-11-14T17:35:17.750Z,9.03
2018-11-14T17:37:46.745Z,7.63
2018-11-14T17:40:20.577Z,5.57
2018-11-14T17:42:50.018Z,4.57
2018-11-14T17:45:20.383Z,4.40
2018-11-14T17:47:49.587Z,4.63
2018-11-14T17:50:20.846Z,4.83
2018-11-14T17:52:50.263Z,4.50
2018-11-14T17:55:19.877Z,4.40
2018-11-14T17:57:48.389Z,4.20
2018-11-14T18:00:18.386Z,3.43
2018-11-14T18:02:47.224Z,4.20
2018-11-14T18:05:17.115Z,3.30
2018-11-14T18:07:46.743Z,3.40
2018-11-14T18:10:16.530Z,2.87
2018-11-14T18:12:45.978Z,3.40
2018-11-14T18:15:14.537Z,3.40
2018-11-14T18:17:43.419Z,3.10
2018-11-14T18:20:14.086Z,3.27
2018-11-14T18:22:43.457Z,3.57
2018-11-14T18:25:12.285Z,3.27
2018-11-14T18:27:40.888Z,4.30
2018-11-14T18:30:12.691Z,4.20
2018-11-14T18:32:41.235Z,3.80
2018-11-14T18:35:12.016Z,3.87
2018-11-14T18:37:41.103Z,3.30
2018-11-14T18:40:12.015Z,3.97
2018-11-14T18:42:40.813Z,3.40
2018-11-14T18:45:14.243Z,4.13
2018-11-14T18:47:43.299Z,4.93
2018-11-14T18:50:13.128Z,5.70
2018-11-14T18:52:41.849Z,5.07
2018-11-14T18:55:11.835Z,5.47
2018-11-14T18:57:40.804Z,5.17
2018-11-14T19:00:13.255Z,7.30
2018-11-14T19:02:42.169Z,6.17
2018-11-14T19:05:11.393Z,6.33
2018-11-14T19:07:40.177Z,7.10
2018-11-14T19:10:10.437Z,7.53
2018-11-14T19:12:39.189Z,7.97
2018-11-14T19:15:10.052Z,7.53
2018-11-14T19:17:38.559Z,7.63
2018-11-14T19:20:08.517Z,6.50
2018-11-14T19:22:37.019Z,7.37
2018-11-14T19:25:06.400Z,7.60
2018-11-14T19:27:35.053Z,7.27
2018-11-14T19:30:04.641Z,8.50
2018-11-14T19:32:33.112Z,7.00
2018-11-14T19:35:01.601Z,5.30
2018-11-14T19:37:30.155Z,6.70
2018-11-14T19:39:58.655Z,6.23
2018-11-14T19:42:27.156Z,6.07
2018-11-14T19:44:55.728Z,6.57
2018-11-14T19:47:24.232Z,6.73
2018-11-14T19:49:52.792Z,6.80
2018-11-14T19:52:21.320Z,8.03
2018-11-14T19:54:49.816Z,7.47
2018-11-14T19:57:18.342Z,8.00
2018-11-14T19:59:46.835Z,8.63
2018-11-14T20:02:15.412Z,8.00
2018-11-14T20:04:43.882Z,8.50
2018-11-14T20:07:12.379Z,9.20
2018-11-14T20:09:40.895Z,9.43
2018-11-14T20:12:09.395Z,8.13
2018-11-14T20:14:38.350Z,7.93
2018-11-14T20:17:06.908Z,9.60
2018-11-14T20:19:35.404Z,9.60
2018-11-14T20:22:03.934Z,8.87
2018-11-14T20:24:32.461Z,9.00
2018-11-14T20:27:00.956Z,9.53
2018-11-14T20:29:29.487Z,7.87
2018-11-14T20:31:58.078Z,7.90
2018-11-14T20:34:26.504Z,9.47
2018-11-14T20:36:55.039Z,9.67
2018-11-14T20:39:23.568Z,9.03
2018-11-14T20:41:52.081Z,8.70
2018-11-14T20:44:20.664Z,10.07
2018-11-14T20:46:49.145Z,9.80
2018-11-14T20:49:17.678Z,11.80
2018-11-14T20:51:46.231Z,11.33
2018-11-14T20:54:14.739Z,10.00
2018-11-14T20:56:43.247Z,9.50
2018-11-14T20:59:11.785Z,12.40
2018-11-14T21:01:40.323Z,10.83
2018-11-14T21:04:08.858Z,10.07
2018-11-14T21:06:37.365Z,9.20
2018-11-14T21:09:08.243Z,8.10
2018-11-14T21:11:36.762Z,10.00
2018-11-14T21:14:05.585Z,8.93
2018-11-14T21:16:34.107Z,9.70
2018-11-14T21:19:02.619Z,9.87
2018-11-14T21:21:31.119Z,9.10
2018-11-14T21:23:59.641Z,9.07
2018-11-14T21:26:28.157Z,8.93
2018-11-14T21:28:56.652Z,9.03
2018-11-14T21:31:25.156Z,9.60
2018-11-14T21:33:53.711Z,9.13
2018-11-14T21:36:22.286Z,8.47
2018-11-14T21:38:50.795Z,8.03
2018-11-14T21:41:19.296Z,9.20
2018-11-14T21:43:47.832Z,8.83
2018-11-14T21:46:16.354Z,8.57
2018-11-14T21:48:44.868Z,8.87
2018-11-14T21:51:13.384Z,7.73
2018-11-14T21:53:41.872Z,8.23
2018-11-14T21:56:10.374Z,8.70
2018-11-14T21:58:38.879Z,8.83
2018-11-14T22:01:07.400Z,8.03
2018-11-14T22:03:35.916Z,8.37
2018-11-14T22:06:04.448Z,7.40
2018-11-14T22:08:32.940Z,7.80
2018-11-14T22:11:01.460Z,9.33
2018-11-14T22:13:29.962Z,6.63
2018-11-14T22:15:58.489Z,8.40
2018-11-14T22:18:26.986Z,8.17
2018-11-14T22:20:55.516Z,6.70
2018-11-14T22:23:24.016Z,7.40
2018-11-14T22:25:52.476Z,8.73
2018-11-14T22:28:20.968Z,9.07
2018-11-14T22:30:49.470Z,6.70
2018-11-14T22:33:18.008Z,7.77
2018-11-14T22:35:46.599Z,7.90
2018-11-14T22:38:15.099Z,8.17
2018-11-14T22:40:43.579Z,6.60
2018-11-14T22:43:12.068Z,8.03
2018-11-14T22:45:40.528Z,7.50
2018-11-14T22:48:09.046Z,7.50
2018-11-14T22:50:37.556Z,7.60
2018-11-14T22:53:06.043Z,6.50
2018-11-14T22:55:34.528Z,7.70
2018-11-14T22:58:03.040Z,8.50
2018-11-14T23:00:32.697Z,8.00
2018-11-14T23:03:02.475Z,8.03
2018-11-14T23:05:31.013Z,6.93
2018-11-14T23:07:59.977Z,7.20
2018-11-14T23:10:28.990Z,7.73
2018-11-14T23:12:57.509Z,7.40
2018-11-14T23:15:26.469Z,7.30
2018-11-14T23:17:54.943Z,8.00
2018-11-14T23:20:23.471Z,8.00
2018-11-14T23:22:52.534Z,7.03
2018-11-14T23:25:21.593Z,8.17
2018-11-14T23:27:51.220Z,7.80
2018-11-14T23:30:20.799Z,6.47
2018-11-14T23:32:50.429Z,7.87
2018-11-14T23:35:27.438Z,8.83
2018-11-14T23:37:57.248Z,7.93
2018-11-14T23:40:26.016Z,7.73
2018-11-14T23:42:54.558Z,9.63
2018-11-14T23:45:23.998Z,8.90
2018-11-14T23:47:52.590Z,9.20
2018-11-14T23:50:23.420Z,9.20
2018-11-14T23:52:52.899Z,8.50
2018-11-14T23:55:22.196Z,8.50
2018-11-14T23:57:50.697Z,7.93
